createdAt,value
2022-09-25T00:01:10.813Z,12.70
2022-09-25T00:03:38.375Z,12.75
2022-09-25T00:06:11.895Z,12.78
2022-09-25T00:08:40.231Z,12.88
2022-09-25T00:11:12.525Z,13.08
2022-09-25T00:13:40.987Z,13.17
2022-09-25T00:16:11.523Z,13.28
2022-09-25T00:18:57.579Z,13.20
2022-09-25T00:21:31.294Z,13.12
2022-09-25T00:24:05.166Z,13.20
2022-09-25T00:26:34.724Z,13.23
2022-09-25T00:29:02.314Z,13.25
2022-09-25T00:31:30.036Z,13.19
2022-09-25T00:33:59.575Z,13.20
2022-09-25T00:36:26.541Z,13.12
2022-09-25T00:38:54.446Z,13.13
2022-09-25T00:41:24.087Z,13.16
2022-09-25T00:43:54.809Z,13.09
2022-09-25T00:46:44.321Z,12.96
2022-09-25T00:49:14.287Z,12.76
2022-09-25T00:51:41.105Z,12.75
2022-09-25T00:54:15.089Z,12.77
2022-09-25T00:56:44.010Z,12.80
2022-09-25T00:59:17.354Z,12.83
2022-09-25T01:01:45.563Z,12.92
2022-09-25T01:04:13.585Z,13.10
2022-09-25T01:06:40.858Z,13.09
2022-09-25T01:09:07.841Z,13.08
2022-09-25T01:11:35.041Z,12.95
2022-09-25T01:14:04.840Z,12.98
2022-09-25T01:16:39.277Z,12.93
2022-09-25T01:19:46.896Z,13.02
2022-09-25T01:22:32.564Z,13.02
2022-09-25T01:25:29.193Z,12.87
2022-09-25T01:28:11.208Z,12.77
2022-09-25T01:30:43.263Z,12.68
2022-09-25T01:33:10.199Z,12.46
2022-09-25T01:35:37.734Z,12.30
2022-09-25T01:38:43.631Z,12.25
2022-09-25T01:41:27.719Z,12.28
2022-09-25T01:44:00.340Z,12.29
2022-09-25T01:46:35.147Z,12.36
2022-09-25T01:49:08.414Z,12.38
2022-09-25T01:51:49.999Z,12.48
2022-09-25T01:54:40.291Z,12.57
2022-09-25T01:57:13.629Z,12.68
2022-09-25T02:00:06.096Z,12.80
2022-09-25T02:02:43.536Z,12.75
2022-09-25T02:05:34.754Z,12.87
2022-09-25T02:08:05.974Z,12.94
2022-09-25T02:10:47.435Z,13.02
2022-09-25T02:13:20.831Z,13.17
2022-09-25T02:15:58.072Z,13.37
2022-09-25T02:18:46.929Z,13.42
2022-09-25T02:21:19.847Z,13.44
2022-09-25T02:23:56.119Z,13.56
2022-09-25T02:26:32.167Z,13.65
2022-09-25T02:29:00.050Z,13.66
2022-09-25T02:31:37.043Z,13.72
2022-09-25T02:34:04.076Z,13.80
2022-09-25T02:36:32.469Z,13.87
2022-09-25T02:39:01.977Z,13.81
2022-09-25T02:41:39.918Z,13.90
2022-09-25T02:44:25.289Z,13.87
2022-09-25T02:47:14.342Z,13.87
2022-09-25T02:49:53.338Z,13.94
2022-09-25T02:52:32.439Z,13.99
2022-09-25T02:55:20.980Z,14.04
2022-09-25T02:57:50.795Z,14.01
2022-09-25T03:00:18.085Z,14.06
2022-09-25T03:02:52.167Z,14.09
2022-09-25T03:05:20.725Z,14.07
2022-09-25T03:08:06.432Z,14.05
2022-09-25T03:10:36.015Z,14.05
2022-09-25T03:13:21.360Z,13.94
2022-09-25T03:15:52.485Z,13.88
2022-09-25T03:18:19.686Z,13.88
2022-09-25T03:20:46.712Z,13.79
2022-09-25T03:23:14.226Z,13.83
2022-09-25T03:25:43.735Z,13.82
2022-09-25T03:28:14.167Z,13.81
2022-09-25T03:30:41.613Z,13.83
2022-09-25T03:33:10.619Z,13.85
2022-09-25T03:35:38.580Z,13.89
2022-09-25T03:38:08.255Z,13.92
2022-09-25T03:40:35.422Z,13.95
2022-09-25T03:45:28.352Z,14.01
2022-09-25T03:47:55.263Z,14.00
2022-09-25T03:50:22.203Z,13.95
2022-09-25T03:52:49.087Z,14.00
2022-09-25T03:55:16.085Z,13.97
2022-09-25T03:57:43.177Z,14.00
2022-09-25T04:00:10.599Z,13.97
2022-09-25T04:02:40.769Z,14.00
2022-09-25T04:05:09.579Z,14.02
2022-09-25T04:07:36.584Z,14.00
2022-09-25T04:10:03.933Z,14.07
2022-09-25T04:12:31.110Z,14.09
2022-09-25T04:14:58.056Z,14.11
2022-09-25T04:17:25.280Z,14.08
2022-09-25T04:19:52.770Z,14.12
2022-09-25T04:22:19.652Z,14.07
2022-09-25T04:24:49.629Z,14.10
2022-09-25T04:27:19.266Z,14.26
2022-09-25T04:29:46.762Z,14.35
2022-09-25T04:32:34.209Z,14.41
2022-09-25T04:35:01.643Z,14.45
2022-09-25T04:37:28.528Z,14.51
2022-09-25T04:39:56.601Z,14.55
2022-09-25T04:42:26.947Z,14.67
2022-09-25T04:44:55.553Z,14.64
2022-09-25T04:47:23.720Z,14.65
2022-09-25T04:49:51.059Z,14.69
2022-09-25T04:52:20.091Z,14.71
2022-09-25T04:54:47.891Z,14.81
2022-09-25T04:57:45.508Z,14.94
2022-09-25T05:00:10.407Z,15.05
2022-09-25T05:02:37.533Z,15.12
2022-09-25T05:05:04.729Z,15.27
2022-09-25T05:07:31.738Z,15.44
2022-09-25T05:09:58.932Z,15.51
2022-09-25T05:12:25.841Z,15.57
2022-09-25T05:14:52.803Z,15.57
2022-09-25T05:17:19.711Z,15.74
2022-09-25T05:19:46.650Z,15.73
2022-09-25T05:22:13.554Z,15.70
2022-09-25T05:24:40.427Z,15.81
2022-09-25T05:27:07.850Z,15.87
2022-09-25T05:29:34.896Z,16.12
2022-09-25T05:32:01.992Z,16.03
2022-09-25T05:34:28.872Z,16.06
2022-09-25T05:36:55.762Z,16.33
2022-09-25T05:39:22.719Z,16.26
2022-09-25T05:41:49.645Z,16.22
2022-09-25T05:44:16.703Z,16.32
2022-09-25T05:46:43.775Z,16.16
2022-09-25T05:49:10.739Z,16.36
2022-09-25T05:51:37.611Z,16.47
2022-09-25T05:54:04.629Z,16.47
2022-09-25T05:56:31.531Z,16.42
2022-09-25T05:58:58.839Z,16.38
2022-09-25T06:01:26.296Z,16.67
2022-09-25T06:03:53.255Z,16.40
2022-09-25T06:06:23.757Z,16.51
2022-09-25T06:08:56.581Z,16.45
2022-09-25T06:11:23.507Z,16.46
2022-09-25T06:13:54.461Z,16.42
2022-09-25T06:16:21.811Z,16.63
2022-09-25T06:18:48.871Z,16.77
2022-09-25T06:21:15.741Z,16.97
2022-09-25T06:23:45.466Z,17.14
2022-09-25T06:26:12.850Z,17.04
2022-09-25T06:28:39.924Z,16.98
2022-09-25T06:31:07.021Z,17.17
2022-09-25T06:33:34.117Z,17.25
2022-09-25T06:36:01.640Z,17.16
2022-09-25T06:38:28.988Z,17.26
2022-09-25T06:40:59.649Z,17.33
2022-09-25T06:43:28.045Z,17.42
2022-09-25T06:45:54.970Z,17.54
2022-09-25T06:48:22.483Z,17.58
2022-09-25T06:50:53.259Z,17.82
2022-09-25T06:53:22.178Z,17.75
2022-09-25T06:55:49.797Z,18.02
2022-09-25T06:58:20.477Z,18.18
2022-09-25T07:00:52.331Z,18.25
2022-09-25T07:03:38.796Z,18.34
2022-09-25T07:06:07.917Z,18.49
2022-09-25T07:08:35.208Z,18.53
2022-09-25T07:11:04.805Z,18.62
2022-09-25T07:13:34.063Z,18.87
2022-09-25T07:16:22.742Z,18.98
2022-09-25T07:18:51.100Z,19.01
2022-09-25T07:21:19.546Z,19.03
2022-09-25T07:23:50.719Z,19.08
2022-09-25T07:26:22.523Z,18.97
2022-09-25T07:28:56.044Z,19.23
2022-09-25T07:31:29.657Z,19.10
2022-09-25T07:33:58.832Z,18.91
2022-09-25T07:36:25.860Z,18.90
2022-09-25T07:38:53.783Z,18.79
2022-09-25T07:41:23.216Z,18.91
2022-09-25T07:44:17.644Z,19.09
2022-09-25T07:46:44.749Z,19.12
2022-09-25T07:49:12.565Z,19.22
2022-09-25T07:51:39.695Z,19.22
2022-09-25T07:54:06.717Z,19.39
2022-09-25T07:56:34.748Z,19.49
2022-09-25T07:59:01.776Z,19.77
2022-09-25T08:01:28.894Z,19.76
2022-09-25T08:03:55.946Z,19.63
2022-09-25T08:06:22.897Z,19.56
2022-09-25T08:08:49.778Z,19.78
2022-09-25T08:11:18.489Z,19.69
2022-09-25T08:13:46.510Z,19.69
2022-09-25T08:16:16.202Z,19.74
2022-09-25T08:18:46.226Z,19.64
2022-09-25T08:21:15.605Z,19.64
2022-09-25T08:23:47.671Z,19.41
2022-09-25T08:26:22.320Z,19.68
2022-09-25T08:28:50.964Z,19.54
2022-09-25T08:31:18.454Z,19.60
2022-09-25T08:33:47.114Z,19.80
2022-09-25T08:36:14.580Z,19.99
2022-09-25T08:38:41.764Z,20.06
2022-09-25T08:41:17.735Z,20.20
2022-09-25T08:44:28.037Z,20.22
2022-09-25T08:47:31.115Z,20.14
2022-09-25T08:50:13.988Z,20.03
2022-09-25T08:52:44.452Z,20.33
2022-09-25T08:55:50.926Z,20.24
2022-09-25T08:58:26.625Z,20.60
2022-09-25T09:01:02.460Z,20.72
2022-09-25T09:03:31.552Z,20.56
2022-09-25T09:06:08.199Z,20.65
2022-09-25T09:08:38.466Z,20.76
2022-09-25T09:11:13.729Z,20.67
2022-09-25T09:13:58.353Z,20.81
2022-09-25T09:17:03.438Z,20.67
2022-09-25T09:19:30.408Z,20.47
2022-09-25T09:22:14.996Z,20.54
2022-09-25T09:24:55.438Z,20.54
2022-09-25T09:27:53.039Z,20.69
2022-09-25T09:30:36.195Z,20.81
2022-09-25T09:33:44.349Z,20.94
2022-09-25T09:36:39.647Z,21.08
2022-09-25T09:39:22.741Z,21.07
2022-09-25T09:42:04.675Z,21.33
2022-09-25T10:17:03.569Z,21.33
2022-09-25T10:19:42.447Z,21.46
2022-09-25T10:22:17.189Z,21.55
2022-09-25T10:25:02.038Z,21.83
2022-09-25T10:27:33.161Z,21.73
2022-09-25T10:30:03.102Z,21.68
2022-09-25T10:32:31.102Z,21.61
2022-09-25T10:34:58.093Z,21.63
2022-09-25T10:37:36.141Z,21.91
2022-09-25T10:40:06.882Z,21.86
2022-09-25T10:42:41.199Z,22.11
2022-09-25T10:45:40.973Z,22.33
2022-09-25T10:48:49.418Z,22.37
2022-09-25T10:51:21.430Z,22.65
2022-09-25T10:53:50.857Z,22.47
2022-09-25T10:56:22.571Z,22.49
2022-09-25T10:59:02.234Z,22.68
2022-09-25T11:01:43.474Z,22.32
2022-09-25T11:04:35.914Z,22.42
2022-09-25T11:07:07.396Z,22.60
2022-09-25T11:09:36.826Z,22.75
2022-09-25T11:12:13.578Z,22.72
2022-09-25T11:14:55.417Z,22.87
2022-09-25T11:17:37.976Z,22.77
2022-09-25T11:20:27.885Z,22.70
2022-09-25T11:23:19.552Z,22.62
2022-09-25T11:25:57.754Z,22.73
2022-09-25T11:28:27.414Z,22.56
2022-09-25T11:31:15.649Z,22.49
2022-09-25T11:34:23.967Z,22.17
2022-09-25T11:37:02.589Z,22.14
2022-09-25T11:40:04.643Z,21.88
2022-09-25T11:42:42.782Z,21.86
2022-09-25T11:45:15.466Z,21.74
2022-09-25T11:47:46.094Z,21.89
2022-09-25T11:50:17.990Z,21.87
2022-09-25T11:53:02.902Z,21.67
2022-09-25T11:56:08.382Z,22.08
2022-09-25T11:58:38.242Z,22.01
2022-09-25T12:01:30.710Z,22.29
2022-09-25T12:04:09.778Z,22.39
2022-09-25T12:07:10.037Z,22.20
2022-09-25T12:09:49.314Z,22.26
2022-09-25T12:12:25.031Z,22.09
2022-09-25T12:15:11.500Z,22.24
2022-09-25T12:17:54.860Z,22.39
2022-09-25T12:20:33.580Z,22.30
2022-09-25T12:23:03.353Z,22.44
2022-09-25T12:25:49.527Z,22.48
2022-09-25T12:28:31.152Z,22.54
2022-09-25T12:31:18.000Z,22.52
2022-09-25T12:34:03.215Z,22.44
2022-09-25T12:37:27.677Z,22.09
2022-09-25T12:39:59.524Z,21.74
2022-09-25T12:42:42.602Z,21.65
2022-09-25T12:45:18.680Z,21.44
2022-09-25T12:48:07.140Z,21.40
2022-09-25T12:50:55.882Z,21.43
2022-09-25T12:53:31.870Z,21.54
2022-09-25T12:56:13.240Z,21.45
2022-09-25T12:58:50.733Z,21.27
2022-09-25T13:01:26.591Z,21.29
2022-09-25T13:03:58.307Z,21.11
2022-09-25T13:06:51.918Z,21.01
2022-09-25T13:09:25.514Z,20.96
2022-09-25T13:11:59.920Z,20.85
2022-09-25T13:14:39.995Z,20.69
2022-09-25T13:17:11.207Z,20.76
2022-09-25T13:19:38.315Z,20.49
2022-09-25T13:22:10.480Z,20.55
2022-09-25T13:24:46.321Z,20.62
2022-09-25T13:27:22.312Z,20.57
2022-09-25T13:29:57.128Z,20.67
2022-09-25T13:32:29.243Z,20.54
2022-09-25T13:35:00.519Z,20.56
2022-09-25T13:37:32.187Z,20.55
2022-09-25T13:40:19.882Z,20.33
2022-09-25T13:42:47.875Z,20.29
2022-09-25T13:45:30.041Z,20.35
2022-09-25T13:48:09.692Z,20.35
2022-09-25T13:50:45.400Z,20.19
2022-09-25T13:53:26.820Z,20.13
2022-09-25T13:55:56.505Z,20.24
2022-09-25T13:58:34.794Z,20.14
2022-09-25T14:01:03.483Z,20.07
2022-09-25T14:03:44.652Z,20.13
2022-09-25T14:06:13.000Z,20.01
2022-09-25T14:08:42.994Z,19.93
2022-09-25T14:11:13.582Z,19.99
2022-09-25T14:13:45.836Z,19.80
2022-09-25T14:16:27.485Z,19.62
2022-09-25T14:19:01.049Z,19.38
2022-09-25T14:21:30.129Z,19.42
2022-09-25T14:24:30.251Z,19.49
2022-09-25T14:27:01.662Z,19.49
2022-09-25T14:29:38.983Z,19.39
2022-09-25T14:32:55.196Z,19.25
2022-09-25T14:35:44.399Z,19.31
2022-09-25T14:38:35.936Z,19.33
2022-09-25T14:41:21.613Z,19.32
2022-09-25T14:44:00.281Z,19.31
2022-09-25T14:46:28.203Z,19.28
2022-09-25T14:49:01.042Z,19.15
2022-09-25T14:51:41.704Z,19.25
2022-09-25T14:54:15.476Z,19.18
2022-09-25T14:56:48.557Z,19.12
2022-09-25T14:59:21.810Z,19.11
2022-09-25T15:01:51.982Z,19.06
2022-09-25T15:04:28.259Z,19.05
2022-09-25T15:07:25.367Z,19.01
2022-09-25T15:09:56.162Z,19.01
2022-09-25T15:12:31.194Z,19.00
2022-09-25T15:15:02.577Z,18.91
2022-09-25T15:17:32.246Z,18.83
2022-09-25T15:20:03.223Z,18.87
2022-09-25T15:22:34.981Z,18.81
2022-09-25T15:25:04.686Z,18.77
2022-09-25T15:27:32.075Z,18.54
2022-09-25T15:30:00.453Z,18.48
2022-09-25T15:32:39.782Z,18.30
2022-09-25T15:35:26.225Z,18.27
2022-09-25T15:38:13.761Z,18.16
2022-09-25T15:40:41.685Z,18.10
2022-09-25T15:43:16.306Z,18.03
2022-09-25T15:46:10.317Z,18.02
2022-09-25T15:48:41.339Z,17.99
2022-09-25T15:51:22.423Z,18.02
2022-09-25T15:54:04.536Z,17.84
2022-09-25T15:56:44.260Z,17.85
2022-09-25T15:59:21.581Z,17.85
2022-09-25T16:02:07.716Z,17.70
2022-09-25T16:04:46.658Z,17.81
2022-09-25T16:07:33.537Z,17.78
2022-09-25T16:10:12.263Z,17.77
2022-09-25T16:12:50.769Z,17.63
2022-09-25T16:15:26.425Z,17.66
2022-09-25T16:17:55.252Z,17.46
2022-09-25T16:20:25.035Z,17.50
2022-09-25T16:22:59.686Z,17.51
2022-09-25T16:25:32.440Z,17.37
2022-09-25T16:28:19.575Z,17.36
2022-09-25T16:30:50.538Z,17.30
2022-09-25T16:33:49.376Z,17.32
2022-09-25T16:36:18.836Z,17.25
2022-09-25T16:39:13.699Z,17.20
2022-09-25T16:41:48.637Z,17.17
2022-09-25T16:44:21.607Z,17.14
2022-09-25T16:46:57.124Z,17.06
2022-09-25T16:49:25.064Z,17.07
2022-09-25T16:51:54.806Z,17.02
2022-09-25T16:54:28.752Z,16.98
2022-09-25T16:56:57.699Z,16.92
2022-09-25T16:59:27.345Z,16.86
2022-09-25T17:02:13.898Z,16.83
2022-09-25T17:04:41.085Z,16.71
2022-09-25T17:07:08.720Z,16.68
2022-09-25T17:09:35.567Z,16.64
2022-09-25T17:12:10.513Z,16.68
2022-09-25T17:14:37.771Z,16.59
2022-09-25T17:17:04.678Z,16.61
2022-09-25T17:19:31.585Z,16.64
2022-09-25T17:21:58.489Z,16.68
2022-09-25T17:24:27.659Z,16.67
2022-09-25T17:26:54.838Z,16.68
2022-09-25T17:29:22.287Z,16.66
2022-09-25T17:31:49.556Z,16.63
2022-09-25T17:34:18.928Z,16.69
2022-09-25T17:36:45.950Z,16.63
2022-09-25T17:39:13.325Z,16.61
2022-09-25T17:41:40.840Z,16.55
2022-09-25T17:44:12.277Z,16.55
2022-09-25T17:46:39.729Z,16.58
2022-09-25T17:49:07.458Z,16.53
2022-09-25T17:51:34.824Z,16.44
2022-09-25T17:54:02.637Z,16.42
2022-09-25T17:56:29.737Z,16.44
2022-09-25T17:58:57.700Z,16.40
2022-09-25T18:01:27.450Z,16.35
2022-09-25T18:03:56.789Z,16.35
2022-09-25T18:06:25.078Z,16.42
2022-09-25T18:08:53.562Z,16.40
2022-09-25T18:11:21.818Z,16.45
2022-09-25T18:13:53.398Z,16.32
2022-09-25T18:16:23.501Z,16.29
2022-09-25T18:19:08.800Z,16.35
2022-09-25T18:21:54.273Z,16.37
2022-09-25T18:24:21.292Z,16.34
2022-09-25T18:26:49.047Z,16.40
2022-09-25T18:29:18.055Z,16.35
2022-09-25T18:31:46.106Z,16.38
2022-09-25T18:34:13.706Z,16.38
2022-09-25T18:36:40.671Z,16.41
2022-09-25T18:39:07.850Z,16.45
2022-09-25T18:41:39.051Z,16.54
2022-09-25T18:44:07.488Z,16.56
2022-09-25T18:46:40.599Z,16.58
2022-09-25T18:49:08.701Z,16.54
2022-09-25T18:51:35.925Z,16.47
2022-09-25T18:54:04.052Z,16.51
2022-09-25T18:56:34.627Z,16.50
2022-09-25T18:59:05.584Z,16.50
2022-09-25T19:01:37.186Z,16.46
2022-09-25T19:04:05.047Z,16.47
2022-09-25T19:06:32.549Z,16.49
2022-09-25T19:08:59.906Z,16.40
2022-09-25T19:11:28.102Z,16.36
2022-09-25T19:13:56.066Z,16.38
2022-09-25T19:16:24.032Z,16.38
2022-09-25T19:18:51.321Z,16.41
2022-09-25T19:21:22.823Z,16.40
2022-09-25T19:23:50.544Z,16.36
2022-09-25T19:26:25.822Z,16.28
2022-09-25T19:28:53.205Z,16.21
2022-09-25T19:31:23.547Z,16.28
2022-09-25T19:33:50.945Z,16.34
2022-09-25T19:36:22.276Z,16.29
2022-09-25T19:38:49.227Z,16.17
2022-09-25T19:41:24.979Z,16.28
2022-09-25T19:43:59.348Z,16.29
2022-09-25T19:46:28.345Z,16.36
2022-09-25T19:48:55.761Z,16.29
2022-09-25T19:51:24.724Z,16.31
2022-09-25T19:53:52.243Z,16.25
2022-09-25T19:56:19.552Z,16.25
2022-09-25T19:58:49.740Z,16.27
2022-09-25T20:01:30.326Z,16.29
2022-09-25T20:03:57.625Z,16.22
2022-09-25T20:06:26.410Z,16.22
2022-09-25T20:09:02.905Z,16.22
2022-09-25T20:11:31.672Z,16.14
2022-09-25T20:13:59.110Z,16.10
2022-09-25T20:16:29.286Z,16.10
2022-09-25T20:19:01.918Z,16.09
2022-09-25T20:21:32.732Z,16.04
2022-09-25T20:24:02.136Z,16.08
2022-09-25T20:26:30.260Z,16.07
2022-09-25T20:28:59.422Z,16.06
2022-09-25T20:31:28.174Z,16.04
2022-09-25T20:33:55.595Z,16.01
2022-09-25T20:36:23.132Z,16.02
2022-09-25T20:38:54.795Z,16.10
2022-09-25T20:41:23.299Z,16.15
2022-09-25T20:43:52.094Z,16.07
2022-09-25T20:46:20.504Z,16.08
2022-09-25T20:48:51.548Z,16.08
2022-09-25T20:51:22.001Z,16.06
2022-09-25T20:53:53.674Z,16.14
2022-09-25T20:56:22.080Z,16.11
2022-09-25T20:58:53.373Z,16.09
2022-09-25T21:01:24.401Z,16.07
2022-09-25T21:03:52.295Z,16.11
2022-09-25T21:06:23.523Z,16.10
2022-09-25T21:08:55.618Z,16.04
2022-09-25T21:11:23.587Z,15.97
2022-09-25T21:13:52.646Z,16.07
2022-09-25T21:16:21.754Z,15.97
2022-09-25T21:18:54.983Z,15.97
2022-09-25T21:21:23.360Z,15.93
2022-09-25T21:23:54.306Z,15.96
2022-09-25T21:26:24.149Z,15.97
2022-09-25T21:28:53.132Z,15.96
2022-09-25T21:31:25.744Z,15.97
2022-09-25T21:33:54.471Z,15.91
2022-09-25T21:36:22.685Z,15.87
2022-09-25T21:38:50.549Z,15.86
2022-09-25T21:41:20.528Z,15.91
2022-09-25T21:43:48.017Z,15.91
2022-09-25T21:46:18.359Z,15.91
2022-09-25T21:48:54.196Z,15.99
2022-09-25T21:51:23.332Z,15.95
2022-09-25T21:53:50.369Z,15.93
2022-09-25T21:56:20.037Z,15.89
2022-09-25T21:58:47.629Z,15.92
2022-09-25T22:01:19.145Z,15.90
2022-09-25T22:03:51.012Z,15.89
2022-09-25T22:06:20.706Z,15.82
2022-09-25T22:08:50.773Z,15.84
2022-09-25T22:11:19.214Z,15.87
2022-09-25T22:13:47.736Z,15.86
2022-09-25T22:16:22.062Z,15.84
2022-09-25T22:19:03.115Z,15.92
2022-09-25T22:21:32.167Z,15.85
2022-09-25T22:23:59.459Z,15.85
2022-09-25T22:26:27.627Z,15.89
2022-09-25T22:28:55.326Z,15.85
2022-09-25T22:31:24.115Z,15.85
2022-09-25T22:34:01.087Z,15.81
2022-09-25T22:36:28.291Z,15.77
2022-09-25T22:38:55.873Z,15.78
2022-09-25T22:41:23.590Z,15.84
2022-09-25T22:43:52.269Z,15.89
2022-09-25T22:46:20.660Z,15.74
2022-09-25T22:48:47.715Z,15.72
2022-09-25T22:51:17.764Z,15.74
2022-09-25T22:53:44.989Z,15.75
2022-09-25T22:56:16.288Z,15.79
2022-09-25T22:58:47.412Z,15.72
2022-09-25T23:01:48.248Z,15.76
2022-09-25T23:04:18.369Z,15.64
2022-09-25T23:06:45.516Z,15.55
2022-09-25T23:09:16.034Z,15.58
2022-09-25T23:11:43.574Z,15.48
2022-09-25T23:14:21.942Z,15.57
2022-09-25T23:16:51.183Z,15.53
2022-09-25T23:19:19.246Z,15.58
2022-09-25T23:21:46.164Z,15.53
2022-09-25T23:24:16.074Z,15.52
2022-09-25T23:26:43.724Z,15.53
2022-09-25T23:29:13.487Z,15.48
2022-09-25T23:31:42.237Z,15.35
2022-09-25T23:34:09.708Z,15.39
2022-09-25T23:36:37.513Z,15.39
2022-09-25T23:39:08.531Z,15.43
2022-09-25T23:41:37.965Z,15.38
2022-09-25T23:44:08.043Z,15.42
2022-09-25T23:46:38.157Z,15.43
2022-09-25T23:49:06.162Z,15.40
2022-09-25T23:51:33.155Z,15.22
2022-09-25T23:54:02.019Z,15.19
2022-09-25T23:56:31.594Z,15.07
2022-09-25T23:59:01.281Z,15.07
